createdAt,value
2022-08-07T00:02:39.998Z,64.48
2022-08-07T00:06:51.933Z,65.03
2022-08-07T00:11:55.774Z,65.03
2022-08-07T00:16:49.445Z,65.13
2022-08-07T00:21:55.528Z,65.16
2022-08-07T00:26:58.987Z,65.36
2022-08-07T00:31:50.265Z,65.77
2022-08-07T00:36:49.177Z,65.97
2022-08-07T00:41:53.854Z,66.00
2022-08-07T00:46:50.071Z,66.61
2022-08-07T00:51:58.758Z,66.71
2022-08-07T00:56:49.567Z,67.15
2022-08-07T01:01:48.904Z,67.46
2022-08-07T01:06:48.799Z,67.56
2022-08-07T01:12:27.377Z,68.00
2022-08-07T01:16:49.686Z,68.10
2022-08-07T01:21:48.613Z,68.51
2022-08-07T01:26:52.193Z,68.40
2022-08-07T01:31:48.827Z,68.61
2022-08-07T01:36:52.635Z,68.71
2022-08-07T01:42:07.081Z,69.05
2022-08-07T01:46:49.304Z,68.95
2022-08-07T01:52:03.175Z,69.15
2022-08-07T01:56:49.801Z,69.36
2022-08-07T02:02:01.569Z,69.59
2022-08-07T02:06:50.023Z,69.89
2022-08-07T02:12:04.194Z,70.10
2022-08-07T02:16:48.905Z,70.54
2022-08-07T02:21:55.583Z,70.84
2022-08-07T02:26:47.762Z,70.84
2022-08-07T02:31:48.516Z,71.25
2022-08-07T02:36:47.617Z,71.25
2022-08-07T02:41:47.541Z,71.49
2022-08-07T02:46:52.579Z,72.10
2022-08-07T02:51:51.977Z,71.60
2022-08-07T02:56:47.359Z,71.80
2022-08-07T03:01:47.486Z,71.77
2022-08-07T03:06:48.272Z,71.60
2022-08-07T03:11:52.351Z,72.00
2022-08-07T03:16:47.086Z,72.31
2022-08-07T03:21:50.826Z,72.31
2022-08-07T03:26:57.868Z,72.31
2022-08-07T03:31:49.722Z,72.24
2022-08-07T03:36:46.821Z,72.44
2022-08-07T03:41:47.668Z,72.75
2022-08-07T03:47:13.522Z,72.85
2022-08-07T03:52:00.936Z,73.05
2022-08-07T03:57:03.502Z,72.85
2022-08-07T04:01:47.582Z,72.85
2022-08-07T04:06:46.446Z,73.26
2022-08-07T04:12:23.897Z,73.46
2022-08-07T04:16:58.569Z,73.43
2022-08-07T04:21:58.721Z,72.51
2022-08-07T04:26:47.214Z,71.45
2022-08-07T04:32:03.052Z,70.78
2022-08-07T04:36:49.490Z,69.39
2022-08-07T04:41:50.901Z,68.34
2022-08-07T04:47:04.387Z,67.26
2022-08-07T04:51:46.848Z,65.57
2022-08-07T04:58:16.888Z,64.36
2022-08-07T05:01:46.717Z,63.29
2022-08-07T05:06:51.582Z,62.02
2022-08-07T05:11:58.363Z,60.01
2022-08-07T05:16:46.533Z,58.24
2022-08-07T05:21:59.781Z,56.75
2022-08-07T05:26:46.418Z,55.99
2022-08-07T05:31:51.280Z,56.06
2022-08-07T05:36:48.814Z,55.13
2022-08-07T05:42:00.511Z,54.90
2022-08-07T05:46:46.146Z,53.64
2022-08-07T05:51:46.175Z,52.56
2022-08-07T05:56:44.981Z,51.81
2022-08-07T06:01:44.935Z,51.59
2022-08-07T06:06:46.405Z,49.19
2022-08-07T06:11:44.776Z,47.30
2022-08-07T06:16:44.726Z,45.86
2022-08-07T06:22:14.628Z,44.50
2022-08-07T06:26:45.612Z,42.72
2022-08-07T06:31:50.137Z,41.79
2022-08-07T06:36:44.462Z,41.49
2022-08-07T06:42:01.681Z,40.67
2022-08-07T06:46:53.169Z,39.45
2022-08-07T06:51:50.077Z,38.42
2022-08-07T06:56:48.506Z,38.32
2022-08-07T07:01:48.710Z,38.50
2022-08-07T07:06:57.507Z,39.33
2022-08-07T07:12:08.195Z,38.65
2022-08-07T07:16:50.571Z,39.88
2022-08-07T07:22:12.268Z,39.78
2022-08-07T07:26:49.602Z,38.94
2022-08-07T07:31:44.211Z,37.71
2022-08-07T07:36:43.677Z,36.59
2022-08-07T07:42:02.193Z,37.57
2022-08-07T07:46:54.250Z,37.37
2022-08-07T07:51:57.498Z,36.23
2022-08-07T07:56:44.459Z,35.52
2022-08-07T08:02:03.812Z,36.13
2022-08-07T08:06:50.917Z,36.12
2022-08-07T08:11:59.319Z,37.61
2022-08-07T08:16:50.634Z,37.90
2022-08-07T08:21:55.883Z,36.46
2022-08-07T08:26:44.052Z,37.27
2022-08-07T08:32:10.184Z,37.13
2022-08-07T08:36:46.284Z,35.88
2022-08-07T08:41:56.784Z,36.29
2022-08-07T08:46:44.942Z,36.49
2022-08-07T08:51:49.482Z,36.63
2022-08-07T08:56:47.380Z,36.03
2022-08-07T09:01:44.133Z,36.31
2022-08-07T09:06:42.774Z,36.36
2022-08-07T09:11:43.739Z,38.98
2022-08-07T09:16:43.416Z,37.89
2022-08-07T09:22:09.798Z,35.58
2022-08-07T09:26:47.733Z,36.93
2022-08-07T09:31:49.234Z,36.65
2022-08-07T09:36:43.185Z,37.24
2022-08-07T09:41:58.527Z,36.32
2022-08-07T09:47:52.607Z,36.12
2022-08-07T09:52:15.283Z,36.88
2022-08-07T09:56:42.880Z,35.57
2022-08-07T10:01:50.971Z,35.98
2022-08-07T10:06:42.753Z,35.57
2022-08-07T10:12:01.259Z,35.47
2022-08-07T10:16:43.177Z,34.19
2022-08-07T10:22:12.366Z,35.27
2022-08-07T10:26:42.491Z,33.36
2022-08-07T10:31:41.399Z,33.23
2022-08-07T10:36:41.325Z,33.33
2022-08-07T10:41:54.635Z,32.72
2022-08-07T10:46:42.217Z,32.16
2022-08-07T10:52:02.248Z,34.16
2022-08-07T10:56:42.089Z,33.50
2022-08-07T11:01:51.999Z,34.10
2022-08-07T11:06:41.962Z,34.06
2022-08-07T11:11:40.868Z,33.36
2022-08-07T11:16:41.019Z,33.08
2022-08-07T11:21:42.909Z,33.88
2022-08-07T11:26:48.170Z,33.20
2022-08-07T11:31:40.615Z,33.20
2022-08-07T11:36:40.557Z,34.39
2022-08-07T11:42:02.259Z,33.98
2022-08-07T11:46:41.429Z,32.98
2022-08-07T11:51:41.657Z,33.36
2022-08-07T11:56:40.363Z,33.07
2022-08-07T12:01:59.275Z,32.57
2022-08-07T12:06:51.746Z,32.60
2022-08-07T12:11:43.530Z,33.48
2022-08-07T12:16:41.062Z,32.77
2022-08-07T12:22:36.099Z,31.68
2022-08-07T12:26:46.896Z,32.17
2022-08-07T12:32:02.436Z,32.57
2022-08-07T12:36:40.995Z,32.57
2022-08-07T12:41:49.263Z,33.10
2022-08-07T12:46:40.654Z,32.01
2022-08-07T12:51:50.986Z,31.99
2022-08-07T12:56:40.536Z,32.30
2022-08-07T13:01:39.486Z,32.89
2022-08-07T13:07:00.105Z,33.07
2022-08-07T13:12:02.160Z,32.78
2022-08-07T13:16:40.255Z,33.31
2022-08-07T13:21:58.245Z,32.80
2022-08-07T13:26:41.829Z,32.40
2022-08-07T13:31:46.184Z,32.40
2022-08-07T13:36:40.642Z,32.50
2022-08-07T13:41:41.424Z,31.71
2022-08-07T13:46:48.941Z,31.92
2022-08-07T13:52:22.830Z,32.52
2022-08-07T13:56:41.202Z,33.89
2022-08-07T14:01:51.581Z,33.58
2022-08-07T14:06:39.604Z,32.97
2022-08-07T14:11:52.991Z,32.69
2022-08-07T14:16:39.483Z,32.78
2022-08-07T14:22:01.070Z,31.10
2022-08-07T14:26:40.646Z,31.89
2022-08-07T14:31:43.107Z,32.30
2022-08-07T14:36:40.189Z,32.60
2022-08-07T14:42:18.636Z,32.40
2022-08-07T14:46:56.565Z,33.00
2022-08-07T14:52:04.843Z,32.30
2022-08-07T14:56:38.963Z,32.11
2022-08-07T15:01:42.829Z,32.50
2022-08-07T15:06:38.838Z,32.20
2022-08-07T15:11:53.459Z,32.60
2022-08-07T15:16:38.714Z,33.40
2022-08-07T15:26:38.580Z,32.40
2022-08-07T15:32:00.589Z,32.70
2022-08-07T15:37:04.186Z,32.40
2022-08-07T15:42:44.321Z,32.20
2022-08-07T15:46:52.008Z,32.52
2022-08-07T15:56:38.194Z,32.62
2022-08-07T16:01:39.310Z,33.00
2022-08-07T16:06:37.046Z,32.50
2022-08-07T16:11:39.949Z,32.62
2022-08-07T16:16:48.291Z,32.52
2022-08-07T16:22:01.419Z,32.52
2022-08-07T16:26:37.813Z,32.92
2022-08-07T16:31:51.982Z,32.72
2022-08-07T16:37:01.914Z,32.72
2022-08-07T16:41:41.653Z,33.91
2022-08-07T16:47:04.809Z,34.71
2022-08-07T16:51:54.306Z,35.00
2022-08-07T16:56:38.848Z,35.52
2022-08-07T17:01:36.409Z,35.52
2022-08-07T17:06:42.538Z,34.03
2022-08-07T17:12:02.030Z,33.63
2022-08-07T17:16:37.184Z,33.83
2022-08-07T17:21:51.071Z,34.13
2022-08-07T17:26:50.896Z,34.94
2022-08-07T17:31:43.929Z,35.54
2022-08-07T17:36:57.552Z,35.83
2022-08-07T17:42:02.295Z,36.13
2022-08-07T17:46:36.809Z,36.15
2022-08-07T17:52:00.076Z,38.44
2022-08-07T17:56:36.710Z,38.34
2022-08-07T18:01:37.359Z,38.54
2022-08-07T18:06:38.182Z,38.04
2022-08-07T18:12:12.038Z,38.06
2022-08-07T18:16:36.451Z,37.96
2022-08-07T18:21:51.686Z,37.98
2022-08-07T18:26:36.304Z,38.58
2022-08-07T18:31:40.502Z,38.70
2022-08-07T18:36:35.153Z,38.80
2022-08-07T18:41:45.397Z,39.22
2022-08-07T18:46:35.035Z,39.41
2022-08-07T18:52:33.665Z,39.63
2022-08-07T18:56:35.925Z,39.53
2022-08-07T19:02:18.750Z,39.75
2022-08-07T19:06:35.793Z,40.15
2022-08-07T19:11:37.245Z,40.55
2022-08-07T19:17:06.895Z,40.87
2022-08-07T19:21:43.850Z,40.89
2022-08-07T19:27:09.069Z,41.19
2022-08-07T19:31:57.741Z,41.29
2022-08-07T19:36:35.407Z,41.71
2022-08-07T19:41:44.489Z,42.11
2022-08-07T19:46:34.247Z,42.63
2022-08-07T19:51:51.023Z,43.43
2022-08-07T19:57:56.835Z,44.25
2022-08-07T20:01:52.864Z,44.75
2022-08-07T20:06:35.005Z,46.08
2022-08-07T20:12:22.879Z,46.30
2022-08-07T20:16:36.821Z,47.52
2022-08-07T20:21:42.223Z,47.05
2022-08-07T20:26:44.966Z,48.05
2022-08-07T20:31:34.695Z,47.75
2022-08-07T20:36:33.587Z,48.87
2022-08-07T20:41:34.162Z,49.78
2022-08-07T20:46:44.117Z,50.31
2022-08-07T20:51:35.998Z,50.83
2022-08-07T20:56:33.483Z,51.56
2022-08-07T21:01:45.225Z,51.86
2022-08-07T21:06:34.225Z,52.19
2022-08-07T21:11:46.247Z,52.69
2022-08-07T21:16:34.091Z,53.11
2022-08-07T21:21:33.256Z,53.74
2022-08-07T21:26:34.796Z,54.05
2022-08-07T21:32:42.652Z,54.47
2022-08-07T21:36:33.828Z,54.78
2022-08-07T21:41:38.350Z,55.21
2022-08-07T21:46:33.713Z,55.84
2022-08-07T21:51:32.664Z,56.14
2022-08-07T21:56:40.250Z,56.27
2022-08-07T22:02:11.005Z,56.57
2022-08-07T22:06:33.825Z,56.77
2022-08-07T22:11:53.306Z,56.77
2022-08-07T22:16:39.638Z,57.00
2022-08-07T22:22:01.755Z,57.20
2022-08-07T22:26:33.188Z,57.23
2022-08-07T22:31:58.894Z,57.63
2022-08-07T22:36:33.056Z,57.96
2022-08-07T22:42:04.201Z,58.27
2022-08-07T22:47:02.483Z,58.57
2022-08-07T22:51:36.697Z,58.90
2022-08-07T22:56:31.772Z,59.21
2022-08-07T23:01:49.750Z,59.50
2022-08-07T23:06:32.684Z,59.84
2022-08-07T23:11:35.296Z,59.84
2022-08-07T23:16:46.926Z,60.37
2022-08-07T23:21:36.571Z,60.37
2022-08-07T23:26:31.378Z,60.47
2022-08-07T23:32:48.656Z,60.68
2022-08-07T23:36:32.274Z,60.80
2022-08-07T23:41:33.719Z,60.80
2022-08-07T23:46:33.862Z,61.24
2022-08-07T23:53:01.181Z,61.64
2022-08-07T23:56:35.188Z,62.15
